createdAt,value
2018-08-09T00:00:42.551Z,0
2018-08-09T00:01:42.343Z,0
2018-08-09T00:02:42.304Z,0
2018-08-09T00:03:42.794Z,0
2018-08-09T00:04:43.046Z,0
2018-08-09T00:05:43.053Z,0
2018-08-09T00:06:42.785Z,0
2018-08-09T00:07:42.786Z,0
2018-08-09T00:08:42.784Z,0
2018-08-09T00:09:42.786Z,0
2018-08-09T00:10:42.782Z,0
2018-08-09T00:11:43.036Z,0
2018-08-09T00:12:42.522Z,0
2018-08-09T00:13:42.774Z,0
2018-08-09T00:14:43.037Z,0
2018-08-09T00:15:42.517Z,0
2018-08-09T00:16:42.828Z,0
2018-08-09T00:17:42.509Z,0
2018-08-09T00:18:43.023Z,0
2018-08-09T00:19:43.023Z,0
2018-08-09T00:20:43.026Z,0
2018-08-09T00:21:42.769Z,0
2018-08-09T00:22:43.019Z,0
2018-08-09T00:23:42.831Z,0
2018-08-09T00:24:42.243Z,0
2018-08-09T00:25:42.758Z,0
2018-08-09T00:26:42.747Z,0
2018-08-09T00:27:43.009Z,0
2018-08-09T00:28:43.009Z,0
2018-08-09T00:29:42.748Z,0
2018-08-09T00:30:43.011Z,0
2018-08-09T00:31:42.489Z,0
2018-08-09T00:32:42.739Z,0
2018-08-09T00:33:43.001Z,0
2018-08-09T00:34:42.749Z,0
2018-08-09T00:35:42.738Z,0
2018-08-09T00:36:43.007Z,0
2018-08-09T00:37:42.992Z,0
2018-08-09T00:38:42.734Z,0
2018-08-09T00:39:42.476Z,0
2018-08-09T00:40:42.723Z,0
2018-08-09T00:41:42.983Z,0
2018-08-09T00:42:42.726Z,0
2018-08-09T00:43:42.719Z,0
2018-08-09T00:44:42.209Z,0
2018-08-09T00:45:42.460Z,0
2018-08-09T00:46:42.719Z,0
2018-08-09T00:47:42.713Z,0
2018-08-09T00:48:42.712Z,0
2018-08-09T00:49:42.710Z,0
2018-08-09T00:50:42.752Z,0
2018-08-09T00:51:42.970Z,0
2018-08-09T00:52:42.450Z,0
2018-08-09T00:53:42.959Z,0
2018-08-09T00:54:42.440Z,0
2018-08-09T00:55:42.971Z,0
2018-08-09T00:56:42.950Z,0
2018-08-09T00:57:42.950Z,0
2018-08-09T00:58:42.683Z,0
2018-08-09T00:59:42.941Z,0
2018-08-09T01:00:42.942Z,0
2018-08-09T01:01:42.169Z,0
2018-08-09T01:02:42.684Z,0
2018-08-09T01:03:42.677Z,0
2018-08-09T01:04:42.931Z,0
2018-08-09T01:05:42.947Z,0
2018-08-09T01:06:42.936Z,0
2018-08-09T01:07:42.414Z,0
2018-08-09T01:08:42.417Z,0
2018-08-09T01:09:42.922Z,0
2018-08-09T01:10:42.656Z,0
2018-08-09T01:11:42.656Z,0
2018-08-09T01:12:42.667Z,0
2018-08-09T01:13:42.655Z,0
2018-08-09T01:14:42.912Z,0
2018-08-09T01:15:42.399Z,0
2018-08-09T01:16:42.649Z,0
2018-08-09T01:17:42.136Z,0
2018-08-09T01:18:42.902Z,0
2018-08-09T01:19:42.641Z,0
2018-08-09T01:20:42.892Z,0
2018-08-09T01:21:42.639Z,0
2018-08-09T01:22:42.896Z,0
2018-08-09T01:23:42.639Z,0
2018-08-09T01:24:42.878Z,0
2018-08-09T01:25:42.621Z,0
2018-08-09T01:26:42.877Z,0
2018-08-09T01:27:42.899Z,0
2018-08-09T01:28:42.873Z,0
2018-08-09T01:29:42.358Z,0
2018-08-09T01:30:42.871Z,0
2018-08-09T01:31:42.609Z,0
2018-08-09T01:32:43.003Z,0
2018-08-09T01:33:42.876Z,0
2018-08-09T01:34:42.606Z,0
2018-08-09T01:35:42.621Z,0
2018-08-09T01:36:42.861Z,0
2018-08-09T01:37:42.869Z,0
2018-08-09T01:38:42.338Z,0
2018-08-09T01:39:42.589Z,0
2018-08-09T01:40:42.843Z,0
2018-08-09T01:41:42.843Z,0
2018-08-09T01:42:42.586Z,0
2018-08-09T01:43:42.579Z,0
2018-08-09T01:44:42.845Z,0
2018-08-09T01:45:42.577Z,0
2018-08-09T01:46:42.580Z,0
2018-08-09T01:47:42.576Z,0
2018-08-09T01:48:42.566Z,0
2018-08-09T01:49:42.572Z,0
2018-08-09T01:50:42.300Z,0
2018-08-09T01:51:42.820Z,0
2018-08-09T01:52:42.823Z,0
2018-08-09T01:53:42.815Z,0
2018-08-09T01:54:42.549Z,0
2018-08-09T01:55:42.800Z,0
2018-08-09T01:56:42.593Z,0
2018-08-09T01:57:42.536Z,0
2018-08-09T01:58:42.532Z,0
2018-08-09T01:59:42.538Z,0
2018-08-09T02:00:42.799Z,0
2018-08-09T02:01:42.792Z,0
2018-08-09T02:02:42.536Z,0
2018-08-09T02:03:42.787Z,0
2018-08-09T02:04:43.103Z,0
2018-08-09T02:05:42.535Z,0
2018-08-09T02:06:42.779Z,0
2018-08-09T02:07:42.528Z,0
2018-08-09T02:08:42.606Z,0
2018-08-09T02:09:42.255Z,0
2018-08-09T02:10:42.512Z,0
2018-08-09T02:11:42.506Z,0
2018-08-09T02:12:42.505Z,0
2018-08-09T02:13:42.763Z,0
2018-08-09T02:14:42.762Z,0
2018-08-09T02:15:42.247Z,0
2018-08-09T02:16:42.539Z,0
2018-08-09T02:17:42.754Z,0
2018-08-09T02:18:42.494Z,0
2018-08-09T02:19:42.488Z,0
2018-08-09T02:20:42.479Z,0
2018-08-09T02:21:42.477Z,0
2018-08-09T02:22:42.480Z,0
2018-08-09T02:23:42.737Z,0
2018-08-09T02:24:42.471Z,0
2018-08-09T02:25:42.724Z,0
2018-08-09T02:26:41.953Z,0
2018-08-09T02:27:42.712Z,0
2018-08-09T02:28:42.466Z,0
2018-08-09T02:29:42.461Z,0
2018-08-09T02:30:42.473Z,0
2018-08-09T02:31:42.711Z,0
2018-08-09T02:32:42.445Z,0
2018-08-09T02:33:42.759Z,0
2018-08-09T02:34:42.449Z,0
2018-08-09T02:35:42.715Z,0
2018-08-09T02:36:41.924Z,0
2018-08-09T02:37:42.700Z,0
2018-08-09T02:38:42.702Z,0
2018-08-09T02:39:42.698Z,0
2018-08-09T02:40:42.702Z,0
2018-08-09T02:41:42.754Z,0
2018-08-09T02:42:42.689Z,0
2018-08-09T02:43:42.677Z,0
2018-08-09T02:44:42.423Z,0
2018-08-09T02:45:42.164Z,0
2018-08-09T02:46:42.577Z,0
2018-08-09T02:47:42.413Z,0
2018-08-09T02:48:42.659Z,0
2018-08-09T02:49:42.659Z,0
2018-08-09T02:50:42.399Z,0
2018-08-09T02:51:42.145Z,0
2018-08-09T02:52:42.134Z,0
2018-08-09T02:53:42.470Z,0
2018-08-09T02:54:42.645Z,0
2018-08-09T02:55:41.865Z,0
2018-08-09T02:56:42.640Z,0
2018-08-09T02:57:42.118Z,0
2018-08-09T02:58:42.645Z,0
2018-08-09T02:59:42.631Z,0
2018-08-09T03:00:42.382Z,0
2018-08-09T03:01:42.631Z,0
2018-08-09T03:02:42.363Z,0
2018-08-09T03:03:42.105Z,0
2018-08-09T03:04:42.364Z,0
2018-08-09T03:05:42.621Z,0
2018-08-09T03:06:41.845Z,0
2018-08-09T03:07:42.087Z,0
2018-08-09T03:08:42.641Z,0
2018-08-09T03:09:42.346Z,0
2018-08-09T03:10:42.602Z,0
2018-08-09T03:11:42.096Z,0
2018-08-09T03:12:42.077Z,0
2018-08-09T03:13:42.584Z,0
2018-08-09T03:14:42.572Z,0
2018-08-09T03:15:42.316Z,0
2018-08-09T03:16:41.807Z,0
2018-08-09T03:17:42.575Z,0
2018-08-09T03:18:42.569Z,0
2018-08-09T03:19:42.304Z,0
2018-08-09T03:20:41.794Z,0
2018-08-09T03:21:42.297Z,0
2018-08-09T03:22:42.297Z,0
2018-08-09T03:23:42.548Z,0
2018-08-09T03:24:42.550Z,0
2018-08-09T03:25:42.542Z,0
2018-08-09T03:26:42.285Z,0
2018-08-09T03:27:42.281Z,0
2018-08-09T03:28:42.538Z,0
2018-08-09T03:29:41.764Z,0
2018-08-09T03:30:42.531Z,0
2018-08-09T03:31:42.296Z,0
2018-08-09T03:32:42.573Z,0
2018-08-09T03:33:42.520Z,0
2018-08-09T03:34:42.513Z,0
2018-08-09T03:35:42.257Z,0
2018-08-09T03:36:42.510Z,0
2018-08-09T03:37:42.512Z,0
2018-08-09T03:38:42.245Z,0
2018-08-09T03:39:42.493Z,0
2018-08-09T03:40:42.246Z,0
2018-08-09T03:41:42.485Z,0
2018-08-09T03:42:42.231Z,0
2018-08-09T03:43:42.532Z,0
2018-08-09T03:44:42.227Z,0
2018-08-09T03:45:42.491Z,5
2018-08-09T03:46:42.216Z,5
2018-08-09T03:47:42.468Z,5
2018-08-09T03:48:42.477Z,5
2018-08-09T03:49:42.462Z,5
2018-08-09T03:50:42.472Z,5
2018-08-09T03:51:42.471Z,5
2018-08-09T03:52:42.459Z,5
2018-08-09T03:53:42.201Z,5
2018-08-09T03:54:42.458Z,10
2018-08-09T03:55:42.446Z,10
2018-08-09T03:56:42.183Z,10
2018-08-09T03:57:42.175Z,10
2018-08-09T03:58:42.171Z,10
2018-08-09T03:59:42.760Z,10
2018-08-09T04:00:42.425Z,15
2018-08-09T04:01:42.163Z,15
2018-08-09T04:02:42.168Z,15
2018-08-09T04:03:42.160Z,15
2018-08-09T04:04:42.160Z,15
2018-08-09T04:05:42.417Z,20
2018-08-09T04:06:42.154Z,20
2018-08-09T04:07:42.147Z,20
2018-08-09T04:08:42.147Z,20
2018-08-09T04:09:42.161Z,20
2018-08-09T04:10:42.398Z,25
2018-08-09T04:11:42.250Z,25
2018-08-09T04:12:42.390Z,25
2018-08-09T04:13:41.870Z,25
2018-08-09T04:14:42.124Z,30
2018-08-09T04:15:42.381Z,30
2018-08-09T04:16:41.602Z,30
2018-08-09T04:17:42.114Z,30
2018-08-09T04:18:42.119Z,35
2018-08-09T04:19:42.362Z,35
2018-08-09T04:20:42.110Z,35
2018-08-09T04:21:42.106Z,35
2018-08-09T04:22:42.357Z,40
2018-08-09T04:23:42.090Z,40
2018-08-09T04:24:42.337Z,40
2018-08-09T04:25:42.344Z,40
2018-08-09T04:26:42.260Z,45
2018-08-09T04:27:42.390Z,45
2018-08-09T04:28:42.073Z,45
2018-08-09T04:29:42.340Z,45
2018-08-09T04:30:42.329Z,50
2018-08-09T04:31:42.327Z,50
2018-08-09T04:32:42.057Z,50
2018-08-09T04:33:41.810Z,50
2018-08-09T04:34:42.308Z,55
2018-08-09T04:35:42.061Z,55
2018-08-09T04:36:42.098Z,55
2018-08-09T04:37:42.313Z,55
2018-08-09T04:38:41.784Z,60
2018-08-09T04:39:42.295Z,60
2018-08-09T04:40:42.047Z,60
2018-08-09T04:41:42.283Z,60
2018-08-09T04:42:42.289Z,65
2018-08-09T04:43:42.030Z,65
2018-08-09T04:44:42.022Z,65
2018-08-09T04:45:41.766Z,65
2018-08-09T04:46:42.274Z,70
2018-08-09T04:47:41.762Z,70
2018-08-09T04:48:42.264Z,70
2018-08-09T04:49:42.008Z,70
2018-08-09T04:50:42.012Z,75
2018-08-09T04:51:42.253Z,75
2018-08-09T04:52:42.260Z,75
2018-08-09T04:53:42.250Z,75
2018-08-09T04:54:41.997Z,80
2018-08-09T04:55:41.986Z,80
2018-08-09T04:56:41.985Z,80
2018-08-09T04:57:41.979Z,80
2018-08-09T04:58:41.987Z,80
2018-08-09T04:59:41.985Z,85
2018-08-09T05:00:41.973Z,85
2018-08-09T05:01:42.235Z,85
2018-08-09T05:02:41.972Z,85
2018-08-09T05:03:41.708Z,90
2018-08-09T05:04:41.971Z,90
2018-08-09T05:05:41.701Z,90
2018-08-09T05:06:41.957Z,90
2018-08-09T05:07:42.200Z,90
2018-08-09T05:08:41.957Z,95
2018-08-09T05:09:41.949Z,95
2018-08-09T05:10:41.947Z,95
2018-08-09T05:11:42.208Z,95
2018-08-09T05:12:42.203Z,95
2018-08-09T05:13:41.930Z,100
2018-08-09T05:14:41.932Z,100
2018-08-09T05:15:41.933Z,100
2018-08-09T05:16:41.929Z,100
2018-08-09T05:17:41.676Z,100
2018-08-09T05:18:41.928Z,100
2018-08-09T05:19:42.173Z,105
2018-08-09T05:20:41.920Z,105
2018-08-09T05:21:41.915Z,105
2018-08-09T05:22:41.910Z,105
2018-08-09T05:23:41.919Z,105
2018-08-09T05:24:42.167Z,105
2018-08-09T05:25:42.161Z,105
2018-08-09T05:26:42.273Z,105
2018-08-09T05:27:41.654Z,105
2018-08-09T05:28:42.157Z,105
2018-08-09T05:29:42.159Z,105
2018-08-09T05:30:41.888Z,105
2018-08-09T05:31:41.632Z,110
2018-08-09T05:32:42.141Z,110
2018-08-09T05:33:42.151Z,110
2018-08-09T05:34:42.150Z,110
2018-08-09T05:35:42.145Z,110
2018-08-09T05:36:42.135Z,110
2018-08-09T05:37:42.138Z,115
2018-08-09T05:38:42.133Z,115
2018-08-09T05:39:42.129Z,115
2018-08-09T05:40:41.878Z,115
2018-08-09T05:41:42.123Z,115
2018-08-09T05:42:41.912Z,115
2018-08-09T05:43:41.869Z,120
2018-08-09T05:44:41.861Z,120
2018-08-09T05:45:41.864Z,120
2018-08-09T05:46:42.120Z,120
2018-08-09T05:47:42.125Z,120
2018-08-09T05:48:41.863Z,120
2018-08-09T05:49:41.865Z,120
2018-08-09T05:50:41.635Z,120
2018-08-09T05:51:41.840Z,120
2018-08-09T05:52:42.337Z,125
2018-08-09T05:53:41.840Z,125
2018-08-09T05:54:42.094Z,125
2018-08-09T05:55:42.096Z,125
2018-08-09T05:56:42.096Z,125
2018-08-09T05:57:41.576Z,125
2018-08-09T05:58:41.734Z,125
2018-08-09T05:59:42.086Z,130
2018-08-09T06:00:41.826Z,130
2018-08-09T06:01:42.083Z,130
2018-08-09T06:02:41.851Z,130
2018-08-09T06:03:41.577Z,130
2018-08-09T06:04:42.095Z,130
2018-08-09T06:05:42.345Z,130
2018-08-09T06:06:41.567Z,130
2018-08-09T06:07:42.076Z,130
2018-08-09T06:08:42.080Z,130
2018-08-09T06:09:41.307Z,130
2018-08-09T06:10:41.828Z,135
2018-08-09T06:11:41.559Z,135
2018-08-09T06:12:41.826Z,135
2018-08-09T06:13:41.843Z,135
2018-08-09T06:14:41.552Z,135
2018-08-09T06:15:41.798Z,135
2018-08-09T06:16:42.071Z,135
2018-08-09T06:17:41.549Z,135
2018-08-09T06:18:41.589Z,135
2018-08-09T06:19:42.065Z,140
2018-08-09T06:20:42.066Z,140
2018-08-09T06:21:41.800Z,140
2018-08-09T06:22:41.796Z,140
2018-08-09T06:23:42.052Z,140
2018-08-09T06:24:41.791Z,140
2018-08-09T06:25:41.541Z,140
2018-08-09T06:26:42.005Z,140
2018-08-09T06:27:41.556Z,140
2018-08-09T06:28:41.604Z,140
2018-08-09T06:29:41.921Z,145
2018-08-09T06:30:42.056Z,145
2018-08-09T06:31:42.051Z,145
2018-08-09T06:32:41.789Z,145
2018-08-09T06:33:42.203Z,145
2018-08-09T06:34:42.050Z,145
2018-08-09T06:35:41.790Z,150
2018-08-09T06:36:42.039Z,150
2018-08-09T06:37:42.043Z,150
2018-08-09T06:38:41.537Z,150
2018-08-09T06:39:42.044Z,150
2018-08-09T06:40:41.787Z,150
2018-08-09T06:41:41.272Z,150
2018-08-09T06:42:41.779Z,150
2018-08-09T06:43:41.526Z,150
2018-08-09T06:44:41.784Z,150
2018-08-09T06:45:41.780Z,155
2018-08-09T06:46:42.048Z,155
2018-08-09T06:47:42.249Z,160
2018-08-09T06:48:42.042Z,175
2018-08-09T06:49:41.526Z,190
2018-08-09T06:50:41.782Z,215
2018-08-09T06:51:42.043Z,240
2018-08-09T06:52:41.779Z,300
2018-08-09T06:53:42.045Z,330
2018-08-09T06:54:41.518Z,335
2018-08-09T06:55:41.789Z,340
2018-08-09T06:56:41.517Z,350
2018-08-09T06:57:42.032Z,360
2018-08-09T06:58:42.041Z,355
2018-08-09T06:59:41.780Z,345
2018-08-09T07:00:42.041Z,350
2018-08-09T07:01:42.053Z,355
2018-08-09T07:02:41.786Z,360
2018-08-09T07:03:41.545Z,355
2018-08-09T07:04:41.531Z,355
2018-08-09T07:05:42.052Z,350
2018-08-09T07:06:42.054Z,355
2018-08-09T07:07:42.090Z,365
2018-08-09T07:08:42.062Z,360
2018-08-09T07:09:42.091Z,355
2018-08-09T07:10:42.063Z,350
2018-08-09T07:11:41.810Z,345
2018-08-09T07:12:41.839Z,340
2018-08-09T07:13:41.823Z,335
2018-08-09T07:14:42.097Z,340
2018-08-09T07:15:41.568Z,340
2018-08-09T07:16:41.844Z,340
2018-08-09T07:17:41.580Z,340
2018-08-09T07:18:41.589Z,340
2018-08-09T07:19:42.115Z,335
2018-08-09T07:20:41.849Z,335
2018-08-09T07:21:42.121Z,340
2018-08-09T07:22:41.871Z,350
2018-08-09T07:23:41.883Z,355
2018-08-09T07:24:41.881Z,360
2018-08-09T07:25:41.881Z,365
2018-08-09T07:26:42.148Z,365
2018-08-09T07:27:41.949Z,365
2018-08-09T07:28:42.175Z,360
2018-08-09T07:29:41.913Z,355
2018-08-09T07:30:42.173Z,345
2018-08-09T07:31:42.193Z,325
2018-08-09T07:32:42.196Z,285
2018-08-09T07:33:42.289Z,250
2018-08-09T07:34:42.216Z,230
2018-08-09T07:35:42.224Z,215
2018-08-09T07:36:42.367Z,210
2018-08-09T07:37:41.981Z,200
2018-08-09T07:38:42.245Z,200
2018-08-09T07:39:42.989Z,195
2018-08-09T07:40:42.001Z,195
2018-08-09T07:41:41.762Z,190
2018-08-09T07:42:41.765Z,190
2018-08-09T07:43:42.032Z,190
2018-08-09T07:44:42.292Z,190
2018-08-09T07:45:42.305Z,190
2018-08-09T07:46:42.070Z,190
2018-08-09T07:47:42.084Z,190
2018-08-09T07:48:42.704Z,190
2018-08-09T07:49:42.333Z,190
2018-08-09T07:50:42.096Z,190
2018-08-09T07:51:42.380Z,190
2018-08-09T07:52:41.856Z,190
2018-08-09T07:53:42.113Z,190
2018-08-09T07:54:42.390Z,190
2018-08-09T07:55:42.388Z,190
2018-08-09T07:56:41.879Z,190
2018-08-09T07:57:42.420Z,185
2018-08-09T07:58:42.164Z,185
2018-08-09T07:59:42.425Z,185
2018-08-09T08:00:42.183Z,185
2018-08-09T08:01:42.452Z,185
2018-08-09T08:02:42.440Z,185
2018-08-09T08:03:42.456Z,185
2018-08-09T08:04:42.464Z,185
2018-08-09T08:05:42.312Z,185
2018-08-09T08:06:41.963Z,185
2018-08-09T08:07:41.966Z,190
2018-08-09T08:08:42.728Z,190
2018-08-09T08:09:42.498Z,175
2018-08-09T08:10:42.260Z,185
2018-08-09T08:11:42.514Z,190
2018-08-09T08:12:42.261Z,190
2018-08-09T08:13:42.025Z,190
2018-08-09T08:14:42.287Z,190
2018-08-09T08:15:42.283Z,190
2018-08-09T08:16:42.554Z,190
2018-08-09T08:17:42.554Z,190
2018-08-09T08:18:42.561Z,185
2018-08-09T08:19:42.564Z,190
2018-08-09T08:20:42.778Z,190
2018-08-09T08:21:42.582Z,190
2018-08-09T08:22:42.590Z,190
2018-08-09T08:23:42.594Z,190
2018-08-09T08:24:42.355Z,190
2018-08-09T08:25:42.616Z,190
2018-08-09T08:26:42.779Z,190
2018-08-09T08:27:42.371Z,190
2018-08-09T08:28:42.368Z,190
2018-08-09T08:29:42.628Z,190
2018-08-09T08:30:42.633Z,190
2018-08-09T08:31:42.386Z,190
2018-08-09T08:32:42.145Z,190
2018-08-09T08:33:42.652Z,190
2018-08-09T08:34:42.891Z,185
2018-08-09T08:35:42.670Z,185
2018-08-09T08:36:42.413Z,190
2018-08-09T08:37:42.423Z,180
2018-08-09T08:38:42.439Z,175
2018-08-09T08:39:42.698Z,195
2018-08-09T08:40:42.184Z,205
2018-08-09T08:41:43.036Z,215
2018-08-09T08:42:42.199Z,220
2018-08-09T08:43:42.711Z,240
2018-08-09T08:44:42.212Z,250
2018-08-09T08:45:42.485Z,235
2018-08-09T08:46:42.730Z,225
2018-08-09T08:47:42.610Z,225
2018-08-09T08:48:42.492Z,245
2018-08-09T08:49:42.528Z,250
2018-08-09T08:50:42.500Z,275
2018-08-09T08:51:42.501Z,280
2018-08-09T08:52:42.770Z,275
2018-08-09T08:53:42.543Z,260
2018-08-09T08:54:42.540Z,260
2018-08-09T08:55:42.794Z,250
2018-08-09T08:56:42.281Z,250
2018-08-09T08:57:42.542Z,255
2018-08-09T08:58:42.290Z,260
2018-08-09T08:59:42.804Z,270
2018-08-09T09:00:42.815Z,275
2018-08-09T09:01:42.557Z,275
2018-08-09T09:02:42.827Z,240
2018-08-09T09:03:42.578Z,230
2018-08-09T09:04:42.843Z,245
2018-08-09T09:05:42.590Z,240
2018-08-09T09:06:42.608Z,265
2018-08-09T09:07:42.917Z,260
2018-08-09T09:08:42.861Z,285
2018-08-09T09:09:42.896Z,295
2018-08-09T09:10:42.876Z,280
2018-08-09T09:11:42.669Z,270
2018-08-09T09:12:42.887Z,275
2018-08-09T09:13:43.075Z,275
2018-08-09T09:14:42.644Z,280
2018-08-09T09:15:42.647Z,285
2018-08-09T09:16:42.654Z,280
2018-08-09T09:17:42.918Z,270
2018-08-09T09:18:42.927Z,255
2018-08-09T09:19:42.673Z,245
2018-08-09T09:20:42.939Z,235
2018-08-09T09:21:42.685Z,220
2018-08-09T09:22:42.688Z,220
2018-08-09T09:23:42.962Z,230
2018-08-09T09:24:42.962Z,230
2018-08-09T09:25:42.972Z,245
2018-08-09T09:26:42.973Z,265
2018-08-09T09:27:42.734Z,275
2018-08-09T09:28:42.477Z,285
2018-08-09T09:29:42.735Z,285
2018-08-09T09:30:43.006Z,280
2018-08-09T09:31:43.046Z,270
2018-08-09T09:32:42.504Z,265
2018-08-09T09:33:42.516Z,260
2018-08-09T09:34:42.523Z,245
2018-08-09T09:35:43.025Z,235
2018-08-09T09:36:42.793Z,245
2018-08-09T09:37:42.807Z,255
2018-08-09T09:38:43.066Z,265
2018-08-09T09:39:43.058Z,265
2018-08-09T09:40:43.068Z,260
2018-08-09T09:41:42.834Z,255
2018-08-09T09:42:42.833Z,255
2018-08-09T09:43:43.090Z,240
2018-08-09T09:44:42.841Z,235
2018-08-09T09:45:42.595Z,250
2018-08-09T09:46:42.856Z,255
2018-08-09T09:47:43.114Z,260
2018-08-09T09:48:42.621Z,250
2018-08-09T09:49:42.992Z,235
2018-08-09T09:50:42.885Z,230
2018-08-09T09:51:42.646Z,245
2018-08-09T09:52:42.901Z,255
2018-08-09T09:53:42.650Z,255
2018-08-09T09:54:42.909Z,240
2018-08-09T09:55:42.670Z,225
2018-08-09T09:56:42.926Z,220
2018-08-09T09:57:42.938Z,230
2018-08-09T09:58:42.940Z,245
2018-08-09T09:59:42.698Z,250
2018-08-09T10:00:42.709Z,255
2018-08-09T10:01:43.109Z,245
2018-08-09T10:02:42.971Z,220
2018-08-09T10:03:42.730Z,215
2018-08-09T10:04:42.736Z,230
2018-08-09T10:05:43.262Z,235
2018-08-09T10:06:42.749Z,240
2018-08-09T10:07:43.278Z,240
2018-08-09T10:08:43.282Z,260
2018-08-09T10:09:43.284Z,275
2018-08-09T10:10:43.051Z,285
2018-08-09T10:11:42.792Z,290
2018-08-09T10:12:43.502Z,275
2018-08-09T10:13:43.062Z,275
2018-08-09T10:14:43.386Z,280
2018-08-09T10:15:43.336Z,280
2018-08-09T10:16:43.339Z,275
2018-08-09T10:17:43.111Z,270
2018-08-09T10:18:43.098Z,260
2018-08-09T10:19:43.445Z,250
2018-08-09T10:20:43.116Z,235
2018-08-09T10:21:42.866Z,220
2018-08-09T10:22:43.145Z,205
2018-08-09T10:23:42.882Z,185
2018-08-09T10:24:43.404Z,175
2018-08-09T10:25:43.411Z,175
2018-08-09T10:26:42.908Z,180
2018-08-09T10:27:43.425Z,190
2018-08-09T10:28:42.919Z,200
2018-08-09T10:29:42.925Z,220
2018-08-09T10:30:43.193Z,225
2018-08-09T10:31:43.449Z,230
2018-08-09T10:32:43.214Z,235
2018-08-09T10:33:43.221Z,235
2018-08-09T10:34:43.226Z,240
2018-08-09T10:35:43.620Z,250
2018-08-09T10:36:42.987Z,265
2018-08-09T10:37:43.512Z,285
2018-08-09T10:38:43.523Z,290
2018-08-09T10:39:43.516Z,295
2018-08-09T10:40:43.547Z,285
2018-08-09T10:41:43.531Z,275
2018-08-09T10:42:43.695Z,255
2018-08-09T10:43:43.550Z,240
2018-08-09T10:44:43.579Z,230
2018-08-09T10:45:43.566Z,225
2018-08-09T10:46:43.573Z,215
2018-08-09T10:47:43.062Z,230
2018-08-09T10:48:43.077Z,220
2018-08-09T10:49:43.350Z,220
2018-08-09T10:50:43.093Z,220
2018-08-09T10:51:43.387Z,210
2018-08-09T10:52:43.367Z,205
2018-08-09T10:53:43.631Z,195
2018-08-09T10:54:43.379Z,185
2018-08-09T10:55:43.972Z,180
2018-08-09T10:56:43.397Z,185
2018-08-09T10:57:43.654Z,190
2018-08-09T10:58:43.409Z,190
2018-08-09T10:59:43.156Z,195
2018-08-09T11:00:43.678Z,215
2018-08-09T11:01:43.491Z,230
2018-08-09T11:02:43.450Z,240
2018-08-09T11:03:43.438Z,240
2018-08-09T11:04:43.705Z,245
2018-08-09T11:05:43.716Z,260
2018-08-09T11:06:43.476Z,285
2018-08-09T11:07:43.736Z,290
2018-08-09T11:08:43.286Z,280
2018-08-09T11:09:43.750Z,270
2018-08-09T11:10:43.248Z,275
2018-08-09T11:11:43.503Z,275
2018-08-09T11:12:43.772Z,255
2018-08-09T11:13:43.767Z,245
2018-08-09T11:14:43.774Z,235
2018-08-09T11:15:43.797Z,220
2018-08-09T11:16:43.799Z,200
2018-08-09T11:17:43.812Z,190
2018-08-09T11:18:43.561Z,185
2018-08-09T11:19:43.569Z,190
2018-08-09T11:20:43.568Z,190
2018-08-09T11:21:43.581Z,195
2018-08-09T11:22:43.595Z,200
2018-08-09T11:23:44.157Z,200
2018-08-09T11:24:43.871Z,210
2018-08-09T11:25:43.353Z,220
2018-08-09T11:26:43.889Z,225
2018-08-09T11:27:43.631Z,230
2018-08-09T11:28:43.896Z,230
2018-08-09T11:29:43.944Z,230
2018-08-09T11:30:43.915Z,225
2018-08-09T11:31:43.665Z,225
2018-08-09T11:32:43.671Z,220
2018-08-09T11:33:43.669Z,215
2018-08-09T11:34:43.684Z,210
2018-08-09T11:35:43.429Z,210
2018-08-09T11:36:43.701Z,205
2018-08-09T11:37:43.450Z,205
2018-08-09T11:38:43.970Z,200
2018-08-09T11:39:44.005Z,195
2018-08-09T11:40:43.729Z,195
2018-08-09T11:41:43.742Z,195
2018-08-09T11:42:44.005Z,195
2018-08-09T11:43:44.074Z,195
2018-08-09T11:44:43.765Z,195
2018-08-09T11:45:43.518Z,195
2018-08-09T11:46:43.775Z,200
2018-08-09T11:47:43.534Z,200
2018-08-09T11:48:44.055Z,200
2018-08-09T11:49:44.072Z,200
2018-08-09T11:50:43.297Z,200
2018-08-09T11:51:43.825Z,200
2018-08-09T11:52:43.571Z,195
2018-08-09T11:53:44.086Z,195
2018-08-09T11:54:43.856Z,190
2018-08-09T11:55:43.846Z,190
2018-08-09T11:56:44.322Z,190
2018-08-09T11:57:43.610Z,185
2018-08-09T11:58:44.139Z,185
2018-08-09T11:59:43.887Z,180
2018-08-09T12:00:43.634Z,175
2018-08-09T12:01:43.935Z,180
2018-08-09T12:02:43.913Z,180
2018-08-09T12:03:43.414Z,180
2018-08-09T12:04:44.195Z,180
2018-08-09T12:05:43.685Z,175
2018-08-09T12:06:43.710Z,180
2018-08-09T12:07:43.956Z,180
2018-08-09T12:08:43.964Z,185
2018-08-09T12:09:44.090Z,190
2018-08-09T12:10:44.234Z,200
2018-08-09T12:11:43.743Z,200
2018-08-09T12:12:43.997Z,190
2018-08-09T12:13:44.182Z,180
2018-08-09T12:14:44.012Z,180
2018-08-09T12:15:44.283Z,185
2018-08-09T12:16:44.032Z,185
2018-08-09T12:17:44.289Z,190
2018-08-09T12:18:44.306Z,190
2018-08-09T12:19:44.305Z,190
2018-08-09T12:20:44.301Z,195
2018-08-09T12:21:44.068Z,205
2018-08-09T12:22:44.335Z,215
2018-08-09T12:23:44.074Z,220
2018-08-09T12:24:43.834Z,225
2018-08-09T12:25:44.374Z,230
2018-08-09T12:26:43.717Z,225
2018-08-09T12:27:44.371Z,220
2018-08-09T12:28:44.128Z,215
2018-08-09T12:29:44.385Z,205
2018-08-09T12:30:43.896Z,200
2018-08-09T12:31:44.145Z,195
2018-08-09T12:32:44.151Z,195
2018-08-09T12:33:44.153Z,195
2018-08-09T12:34:44.435Z,195
2018-08-09T12:35:44.434Z,190
2018-08-09T12:36:44.658Z,195
2018-08-09T12:37:44.200Z,200
2018-08-09T12:38:44.458Z,190
2018-08-09T12:39:44.482Z,180
2018-08-09T12:40:43.963Z,160
2018-08-09T12:41:44.495Z,150
2018-08-09T12:42:44.244Z,145
2018-08-09T12:43:44.506Z,140
2018-08-09T12:44:44.247Z,135
2018-08-09T12:45:44.400Z,150
2018-08-09T12:46:44.010Z,150
2018-08-09T12:47:44.272Z,195
2018-08-09T12:48:44.277Z,235
2018-08-09T12:49:44.541Z,255
2018-08-09T12:50:44.441Z,255
2018-08-09T12:51:44.303Z,240
2018-08-09T12:52:44.314Z,225
2018-08-09T12:53:44.316Z,215
2018-08-09T12:54:44.328Z,210
2018-08-09T12:55:44.329Z,205
2018-08-09T12:56:44.632Z,200
2018-08-09T12:57:44.352Z,215
2018-08-09T12:58:44.613Z,230
2018-08-09T12:59:44.369Z,230
2018-08-09T13:00:44.376Z,235
2018-08-09T13:01:44.127Z,235
2018-08-09T13:02:44.648Z,225
2018-08-09T13:03:44.669Z,220
2018-08-09T13:04:44.149Z,210
2018-08-09T13:05:44.725Z,215
2018-08-09T13:06:44.416Z,235
2018-08-09T13:07:44.164Z,240
2018-08-09T13:08:44.176Z,265
2018-08-09T13:09:44.695Z,245
2018-08-09T13:10:44.715Z,245
2018-08-09T13:11:44.463Z,245
2018-08-09T13:12:44.474Z,250
2018-08-09T13:13:44.210Z,240
2018-08-09T13:14:44.732Z,250
2018-08-09T13:15:44.744Z,245
2018-08-09T13:16:44.754Z,275
2018-08-09T13:17:44.505Z,280
2018-08-09T13:18:44.506Z,295
2018-08-09T13:19:44.513Z,330
2018-08-09T13:20:44.521Z,320
2018-08-09T13:21:44.530Z,320
2018-08-09T13:22:44.804Z,295
2018-08-09T13:23:44.547Z,345
2018-08-09T13:24:44.562Z,340
2018-08-09T13:25:44.561Z,330
2018-08-09T13:26:44.574Z,345
2018-08-09T13:27:44.837Z,365
2018-08-09T13:28:44.846Z,385
2018-08-09T13:29:44.847Z,370
2018-08-09T13:30:44.087Z,365
2018-08-09T13:31:44.605Z,350
2018-08-09T13:32:44.618Z,320
2018-08-09T13:33:44.935Z,305
2018-08-09T13:34:44.890Z,295
2018-08-09T13:35:44.929Z,305
2018-08-09T13:36:44.650Z,300
2018-08-09T13:37:44.660Z,300
2018-08-09T13:38:44.913Z,295
2018-08-09T13:39:44.445Z,290
2018-08-09T13:40:44.423Z,285
2018-08-09T13:41:44.953Z,305
2018-08-09T13:42:44.955Z,325
2018-08-09T13:43:44.717Z,335
2018-08-09T13:44:44.979Z,330
2018-08-09T13:45:44.978Z,325
2018-08-09T13:46:45.040Z,300
2018-08-09T13:47:44.740Z,285
2018-08-09T13:48:44.751Z,265
2018-08-09T13:49:44.502Z,265
2018-08-09T13:50:45.024Z,275
2018-08-09T13:51:45.249Z,290
2018-08-09T13:52:45.198Z,295
2018-08-09T13:53:44.796Z,315
2018-08-09T13:54:44.547Z,330
2018-08-09T13:55:45.061Z,310
2018-08-09T13:56:45.079Z,275
2018-08-09T13:57:45.090Z,260
2018-08-09T13:58:44.837Z,235
2018-08-09T13:59:44.844Z,220
2018-08-09T14:00:44.848Z,205
2018-08-09T14:01:45.117Z,185
2018-08-09T14:02:44.867Z,175
2018-08-09T14:03:45.136Z,160
2018-08-09T14:04:45.144Z,160